sensor_id;sensor_type;location;lat;lon;timestamp;P1;durP1;ratioP1;P2;durP2;ratioP2
75739;SDS011;64357;51.344;6.550;2023-04-24T00:01:03;3.53;;;1.00;;
75739;SDS011;64357;51.344;6.550;2023-04-24T00:03:28;1.80;;;0.70;;
75739;SDS011;64357;51.344;6.550;2023-04-24T00:05:57;1.65;;;0.50;;
75739;SDS011;64357;51.344;6.550;2023-04-24T00:08:23;1.25;;;0.60;;
75739;SDS011;64357;51.344;6.550;2023-04-24T00:10:49;2.50;;;0.80;;
75739;SDS011;64357;51.344;6.550;2023-04-24T00:13:15;1.83;;;0.65;;
75739;SDS011;64357;51.344;6.550;2023-04-24T00:15:40;2.07;;;0.70;;
75739;SDS011;64357;51.344;6.550;2023-04-24T00:18:05;3.23;;;0.90;;
75739;SDS011;64357;51.344;6.550;2023-04-24T00:20:31;1.30;;;0.60;;
75739;SDS011;64357;51.344;6.550;2023-04-24T00:23:00;5.10;;;1.20;;
75739;SDS011;64357;51.344;6.550;2023-04-24T00:25:25;1.80;;;0.70;;
75739;SDS011;64357;51.344;6.550;2023-04-24T00:27:51;1.73;;;0.80;;
75739;SDS011;64357;51.344;6.550;2023-04-24T00:30:16;3.33;;;1.23;;
75739;SDS011;64357;51.344;6.550;2023-04-24T00:32:44;6.10;;;1.40;;
75739;SDS011;64357;51.344;6.550;2023-04-24T00:35:09;4.27;;;1.30;;
75739;SDS011;64357;51.344;6.550;2023-04-24T00:37:37;6.85;;;1.80;;
75739;SDS011;64357;51.344;6.550;2023-04-24T00:40:05;4.45;;;1.52;;
75739;SDS011;64357;51.344;6.550;2023-04-24T00:42:31;4.78;;;1.58;;
75739;SDS011;64357;51.344;6.550;2023-04-24T00:45:00;8.07;;;2.10;;
75739;SDS011;64357;51.344;6.550;2023-04-24T00:47:28;5.13;;;1.73;;
75739;SDS011;64357;51.344;6.550;2023-04-24T00:49:54;5.32;;;1.92;;
75739;SDS011;64357;51.344;6.550;2023-04-24T00:52:22;3.90;;;1.48;;
75739;SDS011;64357;51.344;6.550;2023-04-24T00:54:49;5.32;;;1.70;;
75739;SDS011;64357;51.344;6.550;2023-04-24T00:57:14;6.82;;;2.28;;
75739;SDS011;64357;51.344;6.550;2023-04-24T00:59:42;6.28;;;1.83;;
75739;SDS011;64357;51.344;6.550;2023-04-24T01:02:09;6.95;;;2.30;;
75739;SDS011;64357;51.344;6.550;2023-04-24T01:04:36;5.75;;;2.42;;
75739;SDS011;64357;51.344;6.550;2023-04-24T01:07:02;7.93;;;2.58;;
75739;SDS011;64357;51.344;6.550;2023-04-24T01:09:34;11.60;;;2.60;;
75739;SDS011;64357;51.344;6.550;2023-04-24T01:12:05;5.03;;;1.98;;
75739;SDS011;64357;51.344;6.550;2023-04-24T01:14:31;6.97;;;2.55;;
75739;SDS011;64357;51.344;6.550;2023-04-24T01:17:00;5.85;;;2.28;;
75739;SDS011;64357;51.344;6.550;2023-04-24T01:19:28;6.20;;;2.42;;
75739;SDS011;64357;51.344;6.550;2023-04-24T01:21:57;7.80;;;2.70;;
75739;SDS011;64357;51.344;6.550;2023-04-24T01:24:23;7.63;;;2.65;;
75739;SDS011;64357;51.344;6.550;2023-04-24T01:26:51;6.20;;;2.38;;
75739;SDS011;64357;51.344;6.550;2023-04-24T01:29:17;6.68;;;2.15;;
75739;SDS011;64357;51.344;6.550;2023-04-24T01:31:42;6.88;;;2.60;;
75739;SDS011;64357;51.344;6.550;2023-04-24T01:34:08;7.68;;;2.47;;
75739;SDS011;64357;51.344;6.550;2023-04-24T01:36:33;7.50;;;2.35;;
75739;SDS011;64357;51.344;6.550;2023-04-24T01:39:00;7.57;;;2.60;;
75739;SDS011;64357;51.344;6.550;2023-04-24T01:41:25;6.68;;;2.05;;
75739;SDS011;64357;51.344;6.550;2023-04-24T01:43:51;6.72;;;2.38;;
75739;SDS011;64357;51.344;6.550;2023-04-24T01:46:19;6.75;;;2.30;;
75739;SDS011;64357;51.344;6.550;2023-04-24T01:48:47;7.88;;;2.42;;
75739;SDS011;64357;51.344;6.550;2023-04-24T01:51:13;6.75;;;2.42;;
75739;SDS011;64357;51.344;6.550;2023-04-24T01:53:41;7.05;;;2.78;;
75739;SDS011;64357;51.344;6.550;2023-04-24T01:56:07;6.63;;;3.10;;
75739;SDS011;64357;51.344;6.550;2023-04-24T01:58:35;7.50;;;2.53;;
75739;SDS011;64357;51.344;6.550;2023-04-24T02:01:01;9.18;;;2.88;;
75739;SDS011;64357;51.344;6.550;2023-04-24T02:03:26;8.20;;;3.05;;
75739;SDS011;64357;51.344;6.550;2023-04-24T02:05:51;7.05;;;2.75;;
75739;SDS011;64357;51.344;6.550;2023-04-24T02:08:22;10.45;;;3.30;;
75739;SDS011;64357;51.344;6.550;2023-04-24T02:10:47;11.38;;;4.38;;
75739;SDS011;64357;51.344;6.550;2023-04-24T02:13:15;11.93;;;4.03;;
75739;SDS011;64357;51.344;6.550;2023-04-24T02:15:40;10.70;;;3.57;;
75739;SDS011;64357;51.344;6.550;2023-04-24T02:18:08;10.02;;;3.05;;
75739;SDS011;64357;51.344;6.550;2023-04-24T02:20:35;12.33;;;3.33;;
75739;SDS011;64357;51.344;6.550;2023-04-24T02:23:01;8.15;;;2.83;;
75739;SDS011;64357;51.344;6.550;2023-04-24T02:25:26;11.45;;;4.28;;
75739;SDS011;64357;51.344;6.550;2023-04-24T02:27:54;10.38;;;3.42;;
75739;SDS011;64357;51.344;6.550;2023-04-24T02:30:19;12.10;;;4.10;;
75739;SDS011;64357;51.344;6.550;2023-04-24T02:32:49;11.82;;;4.07;;
75739;SDS011;64357;51.344;6.550;2023-04-24T02:35:15;12.43;;;4.40;;
75739;SDS011;64357;51.344;6.550;2023-04-24T02:37:43;9.73;;;4.50;;
75739;SDS011;64357;51.344;6.550;2023-04-24T02:40:09;10.93;;;4.50;;
75739;SDS011;64357;51.344;6.550;2023-04-24T02:42:34;13.55;;;4.50;;
75739;SDS011;64357;51.344;6.550;2023-04-24T02:45:02;12.35;;;4.20;;
75739;SDS011;64357;51.344;6.550;2023-04-24T02:47:27;13.13;;;5.07;;
75739;SDS011;64357;51.344;6.550;2023-04-24T02:49:55;11.67;;;4.67;;
75739;SDS011;64357;51.344;6.550;2023-04-24T02:52:20;11.35;;;4.82;;
75739;SDS011;64357;51.344;6.550;2023-04-24T02:54:46;15.00;;;4.70;;
75739;SDS011;64357;51.344;6.550;2023-04-24T02:57:13;11.18;;;4.50;;
75739;SDS011;64357;51.344;6.550;2023-04-24T02:59:39;14.23;;;4.57;;
75739;SDS011;64357;51.344;6.550;2023-04-24T03:02:04;12.77;;;5.17;;
75739;SDS011;64357;51.344;6.550;2023-04-24T03:04:34;12.48;;;5.20;;
75739;SDS011;64357;51.344;6.550;2023-04-24T03:07:00;12.00;;;4.82;;
75739;SDS011;64357;51.344;6.550;2023-04-24T03:09:27;14.60;;;5.35;;
75739;SDS011;64357;51.344;6.550;2023-04-24T03:11:55;13.30;;;5.10;;
75739;SDS011;64357;51.344;6.550;2023-04-24T03:14:21;13.32;;;5.18;;
75739;SDS011;64357;51.344;6.550;2023-04-24T03:16:46;13.30;;;4.27;;
75739;SDS011;64357;51.344;6.550;2023-04-24T03:19:12;12.70;;;4.83;;
75739;SDS011;64357;51.344;6.550;2023-04-24T03:21:38;14.35;;;4.90;;
75739;SDS011;64357;51.344;6.550;2023-04-24T03:24:06;12.57;;;4.80;;
75739;SDS011;64357;51.344;6.550;2023-04-24T03:26:34;10.65;;;4.53;;
75739;SDS011;64357;51.344;6.550;2023-04-24T03:29:02;12.70;;;4.57;;
75739;SDS011;64357;51.344;6.550;2023-04-24T03:31:28;10.63;;;4.13;;
75739;SDS011;64357;51.344;6.550;2023-04-24T03:33:56;13.13;;;4.72;;
75739;SDS011;64357;51.344;6.550;2023-04-24T03:36:24;15.77;;;4.65;;
75739;SDS011;64357;51.344;6.550;2023-04-24T03:38:52;10.77;;;4.72;;
75739;SDS011;64357;51.344;6.550;2023-04-24T03:41:18;10.83;;;4.70;;
75739;SDS011;64357;51.344;6.550;2023-04-24T03:43:43;12.02;;;4.75;;
75739;SDS011;64357;51.344;6.550;2023-04-24T03:46:09;12.65;;;4.45;;
75739;SDS011;64357;51.344;6.550;2023-04-24T03:48:35;11.25;;;4.15;;
75739;SDS011;64357;51.344;6.550;2023-04-24T03:51:05;11.65;;;4.30;;
75739;SDS011;64357;51.344;6.550;2023-04-24T03:53:30;11.93;;;4.38;;
75739;SDS011;64357;51.344;6.550;2023-04-24T03:55:56;13.67;;;4.83;;
75739;SDS011;64357;51.344;6.550;2023-04-24T03:58:24;12.57;;;4.72;;
75739;SDS011;64357;51.344;6.550;2023-04-24T04:00:50;12.57;;;4.60;;
75739;SDS011;64357;51.344;6.550;2023-04-24T04:03:17;11.32;;;4.82;;
75739;SDS011;64357;51.344;6.550;2023-04-24T04:05:43;9.90;;;4.77;;
75739;SDS011;64357;51.344;6.550;2023-04-24T04:08:11;13.63;;;4.60;;
75739;SDS011;64357;51.344;6.550;2023-04-24T04:10:40;11.30;;;4.75;;
75739;SDS011;64357;51.344;6.550;2023-04-24T04:13:06;14.03;;;4.77;;
75739;SDS011;64357;51.344;6.550;2023-04-24T04:15:34;12.45;;;4.32;;
75739;SDS011;64357;51.344;6.550;2023-04-24T04:18:02;10.93;;;4.60;;
75739;SDS011;64357;51.344;6.550;2023-04-24T04:20:30;10.32;;;4.60;;
75739;SDS011;64357;51.344;6.550;2023-04-24T04:22:58;13.83;;;4.60;;
75739;SDS011;64357;51.344;6.550;2023-04-24T04:25:23;9.10;;;3.83;;
75739;SDS011;64357;51.344;6.550;2023-04-24T04:27:51;12.13;;;5.00;;
75739;SDS011;64357;51.344;6.550;2023-04-24T04:30:17;12.85;;;4.53;;
75739;SDS011;64357;51.344;6.550;2023-04-24T04:32:43;12.30;;;4.22;;
75739;SDS011;64357;51.344;6.550;2023-04-24T04:35:11;9.73;;;4.20;;
75739;SDS011;64357;51.344;6.550;2023-04-24T04:37:36;11.30;;;3.90;;
75739;SDS011;64357;51.344;6.550;2023-04-24T04:40:02;10.95;;;4.65;;
75739;SDS011;64357;51.344;6.550;2023-04-24T04:42:36;12.60;;;4.30;;
75739;SDS011;64357;51.344;6.550;2023-04-24T04:45:06;8.43;;;3.90;;
75739;SDS011;64357;51.344;6.550;2023-04-24T04:47:34;11.50;;;4.05;;
75739;SDS011;64357;51.344;6.550;2023-04-24T04:50:01;8.05;;;3.70;;
75739;SDS011;64357;51.344;6.550;2023-04-24T04:52:28;7.88;;;2.92;;
75739;SDS011;64357;51.344;6.550;2023-04-24T04:54:57;9.93;;;3.70;;
75739;SDS011;64357;51.344;6.550;2023-04-24T04:57:22;9.73;;;3.78;;
75739;SDS011;64357;51.344;6.550;2023-04-24T04:59:47;12.73;;;4.50;;
75739;SDS011;64357;51.344;6.550;2023-04-24T05:02:13;11.95;;;4.20;;
75739;SDS011;64357;51.344;6.550;2023-04-24T05:04:38;11.18;;;3.78;;
75739;SDS011;64357;51.344;6.550;2023-04-24T05:07:04;11.60;;;4.32;;
75739;SDS011;64357;51.344;6.550;2023-04-24T05:09:32;11.00;;;4.28;;
75739;SDS011;64357;51.344;6.550;2023-04-24T05:11:58;10.65;;;4.68;;
75739;SDS011;64357;51.344;6.550;2023-04-24T05:14:27;11.95;;;4.93;;
75739;SDS011;64357;51.344;6.550;2023-04-24T05:16:52;10.48;;;4.68;;
75739;SDS011;64357;51.344;6.550;2023-04-24T05:19:20;10.55;;;4.32;;
75739;SDS011;64357;51.344;6.550;2023-04-24T05:21:45;11.75;;;4.40;;
75739;SDS011;64357;51.344;6.550;2023-04-24T05:24:13;11.35;;;4.68;;
75739;SDS011;64357;51.344;6.550;2023-04-24T05:26:38;10.47;;;4.07;;
75739;SDS011;64357;51.344;6.550;2023-04-24T05:29:04;12.10;;;4.63;;
75739;SDS011;64357;51.344;6.550;2023-04-24T05:31:30;11.23;;;3.97;;
75739;SDS011;64357;51.344;6.550;2023-04-24T05:33:55;10.05;;;4.00;;
75739;SDS011;64357;51.344;6.550;2023-04-24T05:36:21;9.70;;;4.60;;
75739;SDS011;64357;51.344;6.550;2023-04-24T05:38:48;9.55;;;3.95;;
75739;SDS011;64357;51.344;6.550;2023-04-24T05:41:14;9.17;;;3.93;;
75739;SDS011;64357;51.344;6.550;2023-04-24T05:43:40;11.00;;;4.00;;
75739;SDS011;64357;51.344;6.550;2023-04-24T05:46:05;9.37;;;3.70;;
75739;SDS011;64357;51.344;6.550;2023-04-24T05:48:33;8.40;;;3.53;;
75739;SDS011;64357;51.344;6.550;2023-04-24T05:50:58;9.52;;;4.35;;
75739;SDS011;64357;51.344;6.550;2023-04-24T05:53:24;10.67;;;4.50;;
75739;SDS011;64357;51.344;6.550;2023-04-24T05:55:49;10.60;;;4.40;;
75739;SDS011;64357;51.344;6.550;2023-04-24T05:58:14;10.82;;;4.00;;
75739;SDS011;64357;51.344;6.550;2023-04-24T06:00:40;9.65;;;4.00;;
75739;SDS011;64357;51.344;6.550;2023-04-24T06:03:07;8.98;;;4.05;;
75739;SDS011;64357;51.344;6.550;2023-04-24T06:05:35;9.63;;;3.45;;
75739;SDS011;64357;51.344;6.550;2023-04-24T06:08:03;11.88;;;3.80;;
75739;SDS011;64357;51.344;6.550;2023-04-24T06:10:31;8.20;;;3.28;;
75739;SDS011;64357;51.344;6.550;2023-04-24T06:12:56;10.75;;;3.10;;
75739;SDS011;64357;51.344;6.550;2023-04-24T06:15:25;11.40;;;3.97;;
75739;SDS011;64357;51.344;6.550;2023-04-24T06:17:52;8.70;;;3.05;;
75739;SDS011;64357;51.344;6.550;2023-04-24T06:20:17;9.27;;;3.30;;
75739;SDS011;64357;51.344;6.550;2023-04-24T06:22:42;4.27;;;1.77;;
75739;SDS011;64357;51.344;6.550;2023-04-24T06:25:08;6.50;;;2.83;;
75739;SDS011;64357;51.344;6.550;2023-04-24T06:27:37;8.32;;;3.25;;
75739;SDS011;64357;51.344;6.550;2023-04-24T06:30:02;7.60;;;2.43;;
75739;SDS011;64357;51.344;6.550;2023-04-24T06:32:30;6.43;;;2.42;;
75739;SDS011;64357;51.344;6.550;2023-04-24T06:34:58;8.35;;;3.35;;
75739;SDS011;64357;51.344;6.550;2023-04-24T06:37:23;7.93;;;2.40;;
75739;SDS011;64357;51.344;6.550;2023-04-24T06:39:48;6.38;;;2.50;;
75739;SDS011;64357;51.344;6.550;2023-04-24T06:42:16;7.40;;;2.72;;
75739;SDS011;64357;51.344;6.550;2023-04-24T06:44:42;8.73;;;2.57;;
75739;SDS011;64357;51.344;6.550;2023-04-24T06:47:08;5.68;;;1.95;;
75739;SDS011;64357;51.344;6.550;2023-04-24T06:49:34;6.68;;;2.42;;
75739;SDS011;64357;51.344;6.550;2023-04-24T06:52:03;5.80;;;1.95;;
75739;SDS011;64357;51.344;6.550;2023-04-24T06:54:29;3.90;;;1.58;;
75739;SDS011;64357;51.344;6.550;2023-04-24T06:56:55;5.53;;;1.65;;
75739;SDS011;64357;51.344;6.550;2023-04-24T06:59:22;3.90;;;1.65;;
75739;SDS011;64357;51.344;6.550;2023-04-24T07:01:47;2.15;;;1.00;;
75739;SDS011;64357;51.344;6.550;2023-04-24T07:04:13;3.40;;;1.30;;
75739;SDS011;64357;51.344;6.550;2023-04-24T07:06:38;2.67;;;0.82;;
75739;SDS011;64357;51.344;6.550;2023-04-24T07:09:04;2.72;;;1.20;;
75739;SDS011;64357;51.344;6.550;2023-04-24T07:11:29;2.35;;;1.10;;
75739;SDS011;64357;51.344;6.550;2023-04-24T07:13:57;1.40;;;0.70;;
75739;SDS011;64357;51.344;6.550;2023-04-24T07:16:25;2.42;;;0.90;;
75739;SDS011;64357;51.344;6.550;2023-04-24T07:18:53;2.15;;;0.60;;
75739;SDS011;64357;51.344;6.550;2023-04-24T07:21:18;2.53;;;0.70;;
75739;SDS011;64357;51.344;6.550;2023-04-24T07:23:44;1.48;;;0.60;;
75739;SDS011;64357;51.344;6.550;2023-04-24T07:26:09;0.93;;;0.40;;
75739;SDS011;64357;51.344;6.550;2023-04-24T07:28:37;0.87;;;0.30;;
75739;SDS011;64357;51.344;6.550;2023-04-24T07:31:06;7.35;;;1.88;;
75739;SDS011;64357;51.344;6.550;2023-04-24T07:33:35;4.00;;;1.10;;
75739;SDS011;64357;51.344;6.550;2023-04-24T07:36:03;1.92;;;0.75;;
75739;SDS011;64357;51.344;6.550;2023-04-24T07:38:29;3.72;;;1.30;;
75739;SDS011;64357;51.344;6.550;2023-04-24T07:40:55;1.65;;;0.45;;
75739;SDS011;64357;51.344;6.550;2023-04-24T07:43:25;0.30;;;0.20;;
75739;SDS011;64357;51.344;6.550;2023-04-24T07:45:50;2.90;;;1.10;;
75739;SDS011;64357;51.344;6.550;2023-04-24T07:48:16;2.00;;;0.70;;
75739;SDS011;64357;51.344;6.550;2023-04-24T07:50:45;2.22;;;0.85;;
75739;SDS011;64357;51.344;6.550;2023-04-24T07:53:10;1.02;;;0.77;;
75739;SDS011;64357;51.344;6.550;2023-04-24T07:55:38;0.73;;;0.50;;
75739;SDS011;64357;51.344;6.550;2023-04-24T07:58:03;0.80;;;0.43;;
75739;SDS011;64357;51.344;6.550;2023-04-24T08:00:29;2.33;;;0.80;;
75739;SDS011;64357;51.344;6.550;2023-04-24T08:02:56;1.65;;;0.65;;
75739;SDS011;64357;51.344;6.550;2023-04-24T08:05:21;2.20;;;0.90;;
75739;SDS011;64357;51.344;6.550;2023-04-24T08:07:52;0.70;;;0.60;;
75739;SDS011;64357;51.344;6.550;2023-04-24T08:10:18;1.15;;;0.50;;
75739;SDS011;64357;51.344;6.550;2023-04-24T08:12:43;3.63;;;2.08;;
75739;SDS011;64357;51.344;6.550;2023-04-24T08:15:09;1.98;;;0.63;;
75739;SDS011;64357;51.344;6.550;2023-04-24T08:17:37;1.88;;;0.32;;
75739;SDS011;64357;51.344;6.550;2023-04-24T08:20:03;3.07;;;0.77;;
75739;SDS011;64357;51.344;6.550;2023-04-24T08:22:35;4.57;;;1.02;;
75739;SDS011;64357;51.344;6.550;2023-04-24T08:25:00;7.35;;;1.55;;
75739;SDS011;64357;51.344;6.550;2023-04-24T08:27:26;5.20;;;1.08;;
75739;SDS011;64357;51.344;6.550;2023-04-24T08:29:55;4.55;;;0.80;;
75739;SDS011;64357;51.344;6.550;2023-04-24T08:32:22;1.67;;;0.50;;
75739;SDS011;64357;51.344;6.550;2023-04-24T08:34:47;1.20;;;0.50;;
75739;SDS011;64357;51.344;6.550;2023-04-24T08:37:17;1.45;;;0.50;;
75739;SDS011;64357;51.344;6.550;2023-04-24T08:39:43;0.98;;;0.60;;
75739;SDS011;64357;51.344;6.550;2023-04-24T08:42:11;1.00;;;0.30;;
75739;SDS011;64357;51.344;6.550;2023-04-24T08:44:40;4.10;;;1.60;;
75739;SDS011;64357;51.344;6.550;2023-04-24T08:47:08;7.65;;;3.70;;
75739;SDS011;64357;51.344;6.550;2023-04-24T08:49:33;7.90;;;3.23;;
75739;SDS011;64357;51.344;6.550;2023-04-24T08:52:04;5.88;;;2.40;;
75739;SDS011;64357;51.344;6.550;2023-04-24T08:54:34;6.22;;;2.53;;
75739;SDS011;64357;51.344;6.550;2023-04-24T08:57:03;5.70;;;2.63;;
75739;SDS011;64357;51.344;6.550;2023-04-24T08:59:31;6.78;;;2.45;;
75739;SDS011;64357;51.344;6.550;2023-04-24T09:01:56;6.15;;;2.70;;
75739;SDS011;64357;51.344;6.550;2023-04-24T09:04:23;7.90;;;3.20;;
75739;SDS011;64357;51.344;6.550;2023-04-24T09:06:50;4.50;;;2.00;;
75739;SDS011;64357;51.344;6.550;2023-04-24T09:09:16;8.02;;;2.92;;
75739;SDS011;64357;51.344;6.550;2023-04-24T09:11:44;5.72;;;3.03;;
75739;SDS011;64357;51.344;6.550;2023-04-24T09:14:10;6.47;;;2.10;;
75739;SDS011;64357;51.344;6.550;2023-04-24T09:16:36;8.80;;;2.33;;
75739;SDS011;64357;51.344;6.550;2023-04-24T09:19:03;5.70;;;2.08;;
75739;SDS011;64357;51.344;6.550;2023-04-24T09:21:32;7.20;;;2.17;;
75739;SDS011;64357;51.344;6.550;2023-04-24T09:24:05;7.10;;;2.92;;
75739;SDS011;64357;51.344;6.550;2023-04-24T09:26:34;7.55;;;2.78;;
75739;SDS011;64357;51.344;6.550;2023-04-24T09:29:03;7.00;;;2.50;;
75739;SDS011;64357;51.344;6.550;2023-04-24T09:31:30;7.30;;;2.17;;
75739;SDS011;64357;51.344;6.550;2023-04-24T09:33:56;8.02;;;2.40;;
75739;SDS011;64357;51.344;6.550;2023-04-24T09:38:55;7.38;;;2.30;;
75739;SDS011;64357;51.344;6.550;2023-04-24T09:41:25;9.15;;;2.55;;
75739;SDS011;64357;51.344;6.550;2023-04-24T09:43:53;5.78;;;2.10;;
75739;SDS011;64357;51.344;6.550;2023-04-24T09:46:21;8.40;;;3.00;;
75739;SDS011;64357;51.344;6.550;2023-04-24T09:48:47;11.00;;;3.03;;
75739;SDS011;64357;51.344;6.550;2023-04-24T09:51:12;9.30;;;2.13;;
75739;SDS011;64357;51.344;6.550;2023-04-24T09:53:40;9.48;;;2.85;;
75739;SDS011;64357;51.344;6.550;2023-04-24T09:56:10;6.50;;;1.95;;
75739;SDS011;64357;51.344;6.550;2023-04-24T09:58:37;8.68;;;1.67;;
75739;SDS011;64357;51.344;6.550;2023-04-24T10:01:03;6.10;;;1.73;;
75739;SDS011;64357;51.344;6.550;2023-04-24T10:03:29;7.80;;;2.55;;
75739;SDS011;64357;51.344;6.550;2023-04-24T10:05:59;8.30;;;2.10;;
75739;SDS011;64357;51.344;6.550;2023-04-24T10:08:29;8.93;;;2.00;;
75739;SDS011;64357;51.344;6.550;2023-04-24T10:11:00;6.55;;;1.95;;
75739;SDS011;64357;51.344;6.550;2023-04-24T10:13:29;6.70;;;1.45;;
75739;SDS011;64357;51.344;6.550;2023-04-24T10:15:55;5.72;;;1.60;;
75739;SDS011;64357;51.344;6.550;2023-04-24T10:18:21;11.63;;;2.15;;
75739;SDS011;64357;51.344;6.550;2023-04-24T10:20:47;4.25;;;1.10;;
75739;SDS011;64357;51.344;6.550;2023-04-24T10:23:13;4.45;;;1.60;;
75739;SDS011;64357;51.344;6.550;2023-04-24T10:25:41;5.70;;;1.75;;
75739;SDS011;64357;51.344;6.550;2023-04-24T10:28:07;9.63;;;2.58;;
75739;SDS011;64357;51.344;6.550;2023-04-24T10:30:33;7.18;;;2.40;;
75739;SDS011;64357;51.344;6.550;2023-04-24T10:33:05;8.27;;;2.20;;
75739;SDS011;64357;51.344;6.550;2023-04-24T10:35:40;12.65;;;3.00;;
75739;SDS011;64357;51.344;6.550;2023-04-24T10:38:12;5.60;;;1.70;;
75739;SDS011;64357;51.344;6.550;2023-04-24T10:40:41;6.50;;;2.13;;
75739;SDS011;64357;51.344;6.550;2023-04-24T10:43:08;9.20;;;2.47;;
75739;SDS011;64357;51.344;6.550;2023-04-24T10:45:37;7.40;;;2.38;;
75739;SDS011;64357;51.344;6.550;2023-04-24T10:48:09;6.10;;;1.83;;
75739;SDS011;64357;51.344;6.550;2023-04-24T10:53:12;5.72;;;1.92;;
75739;SDS011;64357;51.344;6.550;2023-04-24T10:58:11;7.00;;;2.50;;
75739;SDS011;64357;51.344;6.550;2023-04-24T11:00:40;11.75;;;2.80;;
75739;SDS011;64357;51.344;6.550;2023-04-24T11:03:07;9.15;;;3.17;;
75739;SDS011;64357;51.344;6.550;2023-04-24T11:09:02;8.35;;;2.17;;
75739;SDS011;64357;51.344;6.550;2023-04-24T11:27:12;4.57;;;1.48;;
75739;SDS011;64357;51.344;6.550;2023-04-24T11:32:24;4.65;;;1.17;;
75739;SDS011;64357;51.344;6.550;2023-04-24T11:34:51;6.72;;;1.40;;
75739;SDS011;64357;51.344;6.550;2023-04-24T11:37:21;2.80;;;0.93;;
75739;SDS011;64357;51.344;6.550;2023-04-24T11:39:49;6.72;;;1.55;;
75739;SDS011;64357;51.344;6.550;2023-04-24T11:42:15;6.57;;;1.23;;
75739;SDS011;64357;51.344;6.550;2023-04-24T11:44:41;6.15;;;1.50;;
75739;SDS011;64357;51.344;6.550;2023-04-24T11:47:16;5.47;;;1.17;;
75739;SDS011;64357;51.344;6.550;2023-04-24T11:49:46;5.82;;;1.50;;
75739;SDS011;64357;51.344;6.550;2023-04-24T11:52:14;9.00;;;1.55;;
75739;SDS011;64357;51.344;6.550;2023-04-24T11:54:46;6.70;;;1.85;;
75739;SDS011;64357;51.344;6.550;2023-04-24T11:57:13;4.65;;;1.42;;
75739;SDS011;64357;51.344;6.550;2023-04-24T11:59:41;3.00;;;1.42;;
75739;SDS011;64357;51.344;6.550;2023-04-24T12:02:06;14.68;;;1.95;;
75739;SDS011;64357;51.344;6.550;2023-04-24T12:04:38;4.72;;;1.10;;
75739;SDS011;64357;51.344;6.550;2023-04-24T12:07:05;4.07;;;1.08;;
75739;SDS011;64357;51.344;6.550;2023-04-24T12:09:43;2.03;;;0.70;;
75739;SDS011;64357;51.344;6.550;2023-04-24T12:12:11;4.15;;;1.42;;
75739;SDS011;64357;51.344;6.550;2023-04-24T12:15:06;6.65;;;1.13;;
75739;SDS011;64357;51.344;6.550;2023-04-24T12:17:32;6.63;;;2.08;;
75739;SDS011;64357;51.344;6.550;2023-04-24T12:19:59;3.60;;;1.05;;
75739;SDS011;64357;51.344;6.550;2023-04-24T12:22:27;5.43;;;1.55;;
75739;SDS011;64357;51.344;6.550;2023-04-24T12:24:58;4.60;;;1.40;;
75739;SDS011;64357;51.344;6.550;2023-04-24T12:27:24;2.85;;;0.82;;
75739;SDS011;64357;51.344;6.550;2023-04-24T12:29:55;4.22;;;0.90;;
75739;SDS011;64357;51.344;6.550;2023-04-24T12:32:24;5.25;;;1.23;;
75739;SDS011;64357;51.344;6.550;2023-04-24T12:34:50;3.53;;;1.10;;
75739;SDS011;64357;51.344;6.550;2023-04-24T12:37:16;4.22;;;1.00;;
75739;SDS011;64357;51.344;6.550;2023-04-24T12:40:25;2.85;;;0.80;;
75739;SDS011;64357;51.344;6.550;2023-04-24T12:42:32;5.22;;;1.00;;
75739;SDS011;64357;51.344;6.550;2023-04-24T12:45:02;4.13;;;0.77;;
75739;SDS011;64357;51.344;6.550;2023-04-24T12:47:32;1.70;;;0.63;;
75739;SDS011;64357;51.344;6.550;2023-04-24T12:49:58;4.30;;;0.90;;
75739;SDS011;64357;51.344;6.550;2023-04-24T12:52:27;3.75;;;1.30;;
75739;SDS011;64357;51.344;6.550;2023-04-24T12:54:54;1.80;;;0.50;;
75739;SDS011;64357;51.344;6.550;2023-04-24T12:57:24;3.90;;;0.80;;
75739;SDS011;64357;51.344;6.550;2023-04-24T12:59:50;0.77;;;0.47;;
75739;SDS011;64357;51.344;6.550;2023-04-24T13:02:15;1.63;;;0.45;;
75739;SDS011;64357;51.344;6.550;2023-04-24T13:04:43;1.15;;;0.85;;
75739;SDS011;64357;51.344;6.550;2023-04-24T13:07:13;3.80;;;0.90;;
75739;SDS011;64357;51.344;6.550;2023-04-24T13:09:39;2.13;;;0.50;;
75739;SDS011;64357;51.344;6.550;2023-04-24T13:12:05;0.90;;;0.50;;
75739;SDS011;64357;51.344;6.550;2023-04-24T13:14:31;2.10;;;0.60;;
75739;SDS011;64357;51.344;6.550;2023-04-24T13:16:59;2.95;;;0.75;;
75739;SDS011;64357;51.344;6.550;2023-04-24T13:19:25;5.15;;;0.60;;
75739;SDS011;64357;51.344;6.550;2023-04-24T13:21:54;3.22;;;0.57;;
75739;SDS011;64357;51.344;6.550;2023-04-24T13:24:23;2.45;;;0.60;;
75739;SDS011;64357;51.344;6.550;2023-04-24T13:26:54;0.52;;;0.20;;
75739;SDS011;64357;51.344;6.550;2023-04-24T13:29:21;2.10;;;0.60;;
75739;SDS011;64357;51.344;6.550;2023-04-24T13:31:49;2.15;;;0.40;;
75739;SDS011;64357;51.344;6.550;2023-04-24T13:34:15;2.05;;;0.60;;
75739;SDS011;64357;51.344;6.550;2023-04-24T13:36:41;1.52;;;0.50;;
75739;SDS011;64357;51.344;6.550;2023-04-24T13:39:07;2.45;;;0.70;;
75739;SDS011;64357;51.344;6.550;2023-04-24T13:41:32;2.03;;;0.47;;
75739;SDS011;64357;51.344;6.550;2023-04-24T13:44:03;3.40;;;0.90;;
75739;SDS011;64357;51.344;6.550;2023-04-24T13:46:29;3.08;;;0.80;;
75739;SDS011;64357;51.344;6.550;2023-04-24T13:48:55;1.30;;;0.50;;
75739;SDS011;64357;51.344;6.550;2023-04-24T13:51:21;3.10;;;0.70;;
75739;SDS011;64357;51.344;6.550;2023-04-24T13:53:48;2.17;;;0.55;;
75739;SDS011;64357;51.344;6.550;2023-04-24T13:56:14;2.65;;;0.50;;
75739;SDS011;64357;51.344;6.550;2023-04-24T13:58:42;2.88;;;0.70;;
75739;SDS011;64357;51.344;6.550;2023-04-24T14:01:10;5.70;;;0.95;;
75739;SDS011;64357;51.344;6.550;2023-04-24T14:03:37;2.22;;;0.70;;
75739;SDS011;64357;51.344;6.550;2023-04-24T14:06:05;1.83;;;0.57;;
75739;SDS011;64357;51.344;6.550;2023-04-24T14:08:31;3.45;;;0.70;;
75739;SDS011;64357;51.344;6.550;2023-04-24T14:10:57;3.03;;;0.70;;
75739;SDS011;64357;51.344;6.550;2023-04-24T14:13:22;1.80;;;0.60;;
75739;SDS011;64357;51.344;6.550;2023-04-24T14:15:50;4.10;;;0.80;;
75739;SDS011;64357;51.344;6.550;2023-04-24T14:18:24;3.22;;;0.63;;
75739;SDS011;64357;51.344;6.550;2023-04-24T14:20:54;3.20;;;0.60;;
75739;SDS011;64357;51.344;6.550;2023-04-24T14:23:20;1.25;;;0.40;;
75739;SDS011;64357;51.344;6.550;2023-04-24T14:25:48;2.35;;;0.60;;
75739;SDS011;64357;51.344;6.550;2023-04-24T14:28:17;1.75;;;0.55;;
75739;SDS011;64357;51.344;6.550;2023-04-24T14:30:46;1.88;;;0.50;;
75739;SDS011;64357;51.344;6.550;2023-04-24T14:33:45;5.05;;;0.60;;
75739;SDS011;64357;51.344;6.550;2023-04-24T14:36:12;1.42;;;0.68;;
75739;SDS011;64357;51.344;6.550;2023-04-24T14:38:37;3.00;;;0.77;;
75739;SDS011;64357;51.344;6.550;2023-04-24T14:41:03;1.85;;;0.65;;
75739;SDS011;64357;51.344;6.550;2023-04-24T14:43:34;4.40;;;1.33;;
75739;SDS011;64357;51.344;6.550;2023-04-24T14:46:02;2.17;;;0.70;;
75739;SDS011;64357;51.344;6.550;2023-04-24T14:48:28;2.15;;;0.50;;
75739;SDS011;64357;51.344;6.550;2023-04-24T14:50:54;2.65;;;0.70;;
75739;SDS011;64357;51.344;6.550;2023-04-24T14:53:24;2.80;;;0.80;;
75739;SDS011;64357;51.344;6.550;2023-04-24T14:55:49;1.98;;;0.70;;
75739;SDS011;64357;51.344;6.550;2023-04-24T14:58:15;2.55;;;0.80;;
75739;SDS011;64357;51.344;6.550;2023-04-24T15:00:40;1.30;;;0.80;;
75739;SDS011;64357;51.344;6.550;2023-04-24T15:03:06;2.58;;;0.77;;
75739;SDS011;64357;51.344;6.550;2023-04-24T15:05:32;4.72;;;1.05;;
75739;SDS011;64357;51.344;6.550;2023-04-24T15:08:00;1.80;;;0.57;;
75739;SDS011;64357;51.344;6.550;2023-04-24T15:10:25;0.70;;;0.60;;
75739;SDS011;64357;51.344;6.550;2023-04-24T15:12:50;3.40;;;0.90;;
75739;SDS011;64357;51.344;6.550;2023-04-24T15:15:16;2.50;;;0.75;;